This is the latest recevied weather packets stored in our database for station/object KG5MMT-15. If no packets are shown the sender has not sent any weather packets the latest 10 day(s).
| Time | Temp. | Humidity | Pressure | Rain* | Wind** | Luminosity | Snow |
|---|---|---|---|---|---|---|---|
| 1778120234 | 5° C | 86% | 0 hPa | 0 mm | - | - | - |
| 1778119934 | 5° C | 86% | 0 hPa | 0 mm | - | - | - |
| 1778119634 | 5.56° C | 84% | 0 hPa | 0 mm | - | - | - |
| 1778119334 | 5.56° C | 85% | 0 hPa | 0 mm | - | - | - |
| 1778119034 | 5.56° C | 85% | 0 hPa | 0 mm | - | - | - |
| 1778118734 | 5.56° C | 84% | 0 hPa | 0 mm | - | - | - |
| 1778118434 | 5.56° C | 84% | 0 hPa | 0 mm | - | - | - |
| 1778118134 | 5.56° C | 83% | 0 hPa | 0 mm | - | - | - |
| 1778117834 | 5.56° C | 82% | 0 hPa | 0 mm | - | - | - |
| 1778117534 | 5.56° C | 82% | 0 hPa | 0 mm | - | - | - |
| 1778117234 | 5.56° C | 83% | 0 hPa | 0 mm | - | - | - |
| 1778116934 | 5.56° C | 83% | 0 hPa | 0 mm | - | - | - |
| 1778116634 | 5.56° C | 83% | 0 hPa | 0 mm | - | - | - |
| 1778116334 | 5.56° C | 82% | 0 hPa | 0 mm | - | - | - |
| 1778116034 | 5.56° C | 83% | 0 hPa | 0 mm | - | - | - |
| 1778115734 | 5.56° C | 84% | 0 hPa | 0 mm | - | - | - |
| 1778115434 | 6.11° C | 83% | 0 hPa | 0 mm | - | - | - |
| 1778115134 | 6.11° C | 80% | 0 hPa | 0 mm | - | - | - |
| 1778114834 | 6.67° C | 76% | 0 hPa | 0 mm | - | - | - |
| 1778114534 | 6.67° C | 75% | 0 hPa | 0 mm | - | - | - |
| 1778114234 | 7.22° C | 74% | 0 hPa | 0 mm | - | - | - |
| 1778113934 | 8.89° C | 69% | 0 hPa | 0 mm | - | - | - |
| 1778113634 | 10° C | 59% | 0 hPa | 0 mm | - | - | - |
| 1778113334 | 10° C | 61% | 0 hPa | 0 mm | - | - | - |
| 1778113034 | 10° C | 61% | 0 hPa | 0 mm | - | - | - |
* Rain latest hour (hover to see other rain measurements)
** Current wind speed in m/s (hover to see current wind gust speed)